sensor_id;sensor_type;location;lat;lon;timestamp;temperature;humidity
39219;DHT22;24934;52.752;6.964;2022-11-23T00:01:14;7.00;99.90
39219;DHT22;24934;52.752;6.964;2022-11-23T00:03:43;7.00;99.90
39219;DHT22;24934;52.752;6.964;2022-11-23T00:06:15;7.00;99.90
39219;DHT22;24934;52.752;6.964;2022-11-23T00:08:50;7.00;99.90
39219;DHT22;24934;52.752;6.964;2022-11-23T00:11:17;7.00;99.90
39219;DHT22;24934;52.752;6.964;2022-11-23T00:13:44;7.10;99.90
39219;DHT22;24934;52.752;6.964;2022-11-23T00:16:21;7.10;99.90
39219;DHT22;24934;52.752;6.964;2022-11-23T00:18:47;7.10;99.90
39219;DHT22;24934;52.752;6.964;2022-11-23T00:21:17;7.10;99.90
39219;DHT22;24934;52.752;6.964;2022-11-23T00:23:44;7.10;99.90
39219;DHT22;24934;52.752;6.964;2022-11-23T00:26:10;7.10;99.90
39219;DHT22;24934;52.752;6.964;2022-11-23T00:28:36;7.10;99.90
39219;DHT22;24934;52.752;6.964;2022-11-23T00:31:05;7.10;99.90
39219;DHT22;24934;52.752;6.964;2022-11-23T00:33:34;7.10;99.90
39219;DHT22;24934;52.752;6.964;2022-11-23T00:36:12;7.10;99.90
39219;DHT22;24934;52.752;6.964;2022-11-23T00:38:38;7.10;99.90
39219;DHT22;24934;52.752;6.964;2022-11-23T00:41:09;7.10;99.90
39219;DHT22;24934;52.752;6.964;2022-11-23T00:43:35;7.10;99.90
39219;DHT22;24934;52.752;6.964;2022-11-23T00:46:21;7.10;99.90
39219;DHT22;24934;52.752;6.964;2022-11-23T00:48:48;7.10;99.90
39219;DHT22;24934;52.752;6.964;2022-11-23T00:51:17;7.10;99.90
39219;DHT22;24934;52.752;6.964;2022-11-23T00:53:44;7.10;99.90
39219;DHT22;24934;52.752;6.964;2022-11-23T00:56:10;7.10;99.90
39219;DHT22;24934;52.752;6.964;2022-11-23T00:58:36;7.10;99.90
39219;DHT22;24934;52.752;6.964;2022-11-23T01:01:13;7.10;99.90
39219;DHT22;24934;52.752;6.964;2022-11-23T01:03:58;7.20;99.90
39219;DHT22;24934;52.752;6.964;2022-11-23T01:06:32;7.10;99.90
39219;DHT22;24934;52.752;6.964;2022-11-23T01:09:17;7.10;99.90
39219;DHT22;24934;52.752;6.964;2022-11-23T01:11:43;7.10;99.90
39219;DHT22;24934;52.752;6.964;2022-11-23T01:14:10;7.10;99.90
39219;DHT22;24934;52.752;6.964;2022-11-23T01:16:38;7.20;99.90
39219;DHT22;24934;52.752;6.964;2022-11-23T01:19:07;7.10;99.90
39219;DHT22;24934;52.752;6.964;2022-11-23T01:21:34;7.20;99.90
39219;DHT22;24934;52.752;6.964;2022-11-23T01:24:06;7.20;99.90
39219;DHT22;24934;52.752;6.964;2022-11-23T01:26:32;7.20;99.90
39219;DHT22;24934;52.752;6.964;2022-11-23T01:28:57;7.20;99.90
39219;DHT22;24934;52.752;6.964;2022-11-23T01:31:24;7.20;99.90
39219;DHT22;24934;52.752;6.964;2022-11-23T01:33:54;7.20;99.90
39219;DHT22;24934;52.752;6.964;2022-11-23T01:36:22;7.20;99.90
39219;DHT22;24934;52.752;6.964;2022-11-23T01:38:48;7.20;99.90
39219;DHT22;24934;52.752;6.964;2022-11-23T01:41:17;7.20;99.90
39219;DHT22;24934;52.752;6.964;2022-11-23T01:43:49;7.20;99.90
39219;DHT22;24934;52.752;6.964;2022-11-23T01:46:16;7.20;99.90
39219;DHT22;24934;52.752;6.964;2022-11-23T01:48:59;7.20;99.90
39219;DHT22;24934;52.752;6.964;2022-11-23T01:51:29;7.20;99.90
39219;DHT22;24934;52.752;6.964;2022-11-23T01:54:03;7.20;99.90
39219;DHT22;24934;52.752;6.964;2022-11-23T01:56:43;7.20;99.90
39219;DHT22;24934;52.752;6.964;2022-11-23T01:59:13;7.20;99.90
39219;DHT22;24934;52.752;6.964;2022-11-23T02:01:40;7.20;99.90
39219;DHT22;24934;52.752;6.964;2022-11-23T02:04:10;7.20;99.90
39219;DHT22;24934;52.752;6.964;2022-11-23T02:06:45;7.30;99.90
39219;DHT22;24934;52.752;6.964;2022-11-23T02:09:11;7.30;99.90
39219;DHT22;24934;52.752;6.964;2022-11-23T02:11:38;7.30;99.90
39219;DHT22;24934;52.752;6.964;2022-11-23T02:14:06;7.20;99.90
39219;DHT22;24934;52.752;6.964;2022-11-23T02:16:34;7.30;99.90
39219;DHT22;24934;52.752;6.964;2022-11-23T02:19:00;7.30;99.90
39219;DHT22;24934;52.752;6.964;2022-11-23T02:21:26;7.30;99.90
39219;DHT22;24934;52.752;6.964;2022-11-23T02:26:32;7.30;99.90
39219;DHT22;24934;52.752;6.964;2022-11-23T02:31:38;7.30;99.90
39219;DHT22;24934;52.752;6.964;2022-11-23T02:34:04;7.30;99.90
39219;DHT22;24934;52.752;6.964;2022-11-23T02:39:15;7.40;99.90
39219;DHT22;24934;52.752;6.964;2022-11-23T02:41:50;7.40;99.90
39219;DHT22;24934;52.752;6.964;2022-11-23T02:44:33;7.40;99.90
39219;DHT22;24934;52.752;6.964;2022-11-23T02:47:06;7.40;99.90
39219;DHT22;24934;52.752;6.964;2022-11-23T02:49:36;7.40;99.90
39219;DHT22;24934;52.752;6.964;2022-11-23T02:52:03;7.40;99.90
39219;DHT22;24934;52.752;6.964;2022-11-23T02:54:29;7.40;99.90
39219;DHT22;24934;52.752;6.964;2022-11-23T02:56:55;7.40;99.90
39219;DHT22;24934;52.752;6.964;2022-11-23T02:59:23;7.40;99.90
39219;DHT22;24934;52.752;6.964;2022-11-23T03:01:49;7.40;99.90
39219;DHT22;24934;52.752;6.964;2022-11-23T03:04:14;7.40;99.90
39219;DHT22;24934;52.752;6.964;2022-11-23T03:06:57;7.40;99.90
39219;DHT22;24934;52.752;6.964;2022-11-23T03:09:23;7.40;99.90
39219;DHT22;24934;52.752;6.964;2022-11-23T03:11:51;7.40;99.90
39219;DHT22;24934;52.752;6.964;2022-11-23T03:14:16;7.40;99.90
39219;DHT22;24934;52.752;6.964;2022-11-23T03:16:44;7.50;99.90
39219;DHT22;24934;52.752;6.964;2022-11-23T03:19:10;7.50;99.90
39219;DHT22;24934;52.752;6.964;2022-11-23T03:21:35;7.50;99.90
39219;DHT22;24934;52.752;6.964;2022-11-23T03:24:04;7.50;99.90
39219;DHT22;24934;52.752;6.964;2022-11-23T03:26:30;7.50;99.90
39219;DHT22;24934;52.752;6.964;2022-11-23T03:28:58;7.50;99.90
39219;DHT22;24934;52.752;6.964;2022-11-23T03:31:24;7.50;99.90
39219;DHT22;24934;52.752;6.964;2022-11-23T03:33:53;7.50;99.90
39219;DHT22;24934;52.752;6.964;2022-11-23T03:36:21;7.50;99.90
39219;DHT22;24934;52.752;6.964;2022-11-23T03:38:47;7.50;99.90
39219;DHT22;24934;52.752;6.964;2022-11-23T03:41:12;7.50;99.90
39219;DHT22;24934;52.752;6.964;2022-11-23T03:43:38;7.50;99.90
39219;DHT22;24934;52.752;6.964;2022-11-23T03:46:04;7.50;99.90
39219;DHT22;24934;52.752;6.964;2022-11-23T03:48:29;7.60;99.90
39219;DHT22;24934;52.752;6.964;2022-11-23T03:50:55;7.60;99.90
39219;DHT22;24934;52.752;6.964;2022-11-23T03:53:20;7.60;99.90
39219;DHT22;24934;52.752;6.964;2022-11-23T03:55:46;7.60;99.90
39219;DHT22;24934;52.752;6.964;2022-11-23T03:58:14;7.60;99.90
39219;DHT22;24934;52.752;6.964;2022-11-23T04:00:40;7.70;99.90
39219;DHT22;24934;52.752;6.964;2022-11-23T04:03:09;7.70;99.90
39219;DHT22;24934;52.752;6.964;2022-11-23T04:05:34;7.70;99.90
39219;DHT22;24934;52.752;6.964;2022-11-23T04:08:02;7.70;99.90
39219;DHT22;24934;52.752;6.964;2022-11-23T04:10:28;7.70;99.90
39219;DHT22;24934;52.752;6.964;2022-11-23T04:12:54;7.70;99.90
39219;DHT22;24934;52.752;6.964;2022-11-23T04:15:19;7.70;99.90
39219;DHT22;24934;52.752;6.964;2022-11-23T04:17:45;7.70;99.90
39219;DHT22;24934;52.752;6.964;2022-11-23T04:20:12;7.70;99.90
39219;DHT22;24934;52.752;6.964;2022-11-23T04:22:38;7.70;99.90
39219;DHT22;24934;52.752;6.964;2022-11-23T04:25:04;7.70;99.90
39219;DHT22;24934;52.752;6.964;2022-11-23T04:27:30;7.70;99.90
39219;DHT22;24934;52.752;6.964;2022-11-23T04:29:58;7.70;99.90
39219;DHT22;24934;52.752;6.964;2022-11-23T04:32:24;7.70;99.90
39219;DHT22;24934;52.752;6.964;2022-11-23T04:34:49;7.70;99.90
39219;DHT22;24934;52.752;6.964;2022-11-23T04:37:15;7.70;99.90
39219;DHT22;24934;52.752;6.964;2022-11-23T04:39:40;7.70;99.90
39219;DHT22;24934;52.752;6.964;2022-11-23T04:42:06;7.70;99.90
39219;DHT22;24934;52.752;6.964;2022-11-23T04:44:31;7.70;99.90
39219;DHT22;24934;52.752;6.964;2022-11-23T04:46:57;7.70;99.90
39219;DHT22;24934;52.752;6.964;2022-11-23T04:49:23;7.70;99.90
39219;DHT22;24934;52.752;6.964;2022-11-23T04:51:48;7.70;99.90
39219;DHT22;24934;52.752;6.964;2022-11-23T04:54:14;7.70;99.90
39219;DHT22;24934;52.752;6.964;2022-11-23T04:56:40;7.70;99.90
39219;DHT22;24934;52.752;6.964;2022-11-23T04:59:08;7.70;99.90
39219;DHT22;24934;52.752;6.964;2022-11-23T05:01:37;7.70;99.90
39219;DHT22;24934;52.752;6.964;2022-11-23T05:04:03;7.70;99.90
39219;DHT22;24934;52.752;6.964;2022-11-23T05:06:29;7.70;99.90
39219;DHT22;24934;52.752;6.964;2022-11-23T05:08:54;7.70;99.90
39219;DHT22;24934;52.752;6.964;2022-11-23T05:11:24;7.70;99.90
39219;DHT22;24934;52.752;6.964;2022-11-23T05:13:52;7.70;99.90
39219;DHT22;24934;52.752;6.964;2022-11-23T05:16:18;7.70;99.90
39219;DHT22;24934;52.752;6.964;2022-11-23T05:18:43;7.70;99.90
39219;DHT22;24934;52.752;6.964;2022-11-23T05:21:09;7.70;99.90
39219;DHT22;24934;52.752;6.964;2022-11-23T05:23:40;7.70;99.90
39219;DHT22;24934;52.752;6.964;2022-11-23T05:26:06;7.70;99.90
39219;DHT22;24934;52.752;6.964;2022-11-23T05:28:32;7.70;99.90
39219;DHT22;24934;52.752;6.964;2022-11-23T05:31:00;7.70;99.90
39219;DHT22;24934;52.752;6.964;2022-11-23T05:33:25;7.70;99.90
39219;DHT22;24934;52.752;6.964;2022-11-23T05:35:52;7.70;99.90
39219;DHT22;24934;52.752;6.964;2022-11-23T05:38:20;7.60;99.90
39219;DHT22;24934;52.752;6.964;2022-11-23T05:40:45;7.60;99.90
39219;DHT22;24934;52.752;6.964;2022-11-23T05:43:11;7.60;99.90
39219;DHT22;24934;52.752;6.964;2022-11-23T05:45:37;7.60;99.90
39219;DHT22;24934;52.752;6.964;2022-11-23T05:48:03;7.50;99.90
39219;DHT22;24934;52.752;6.964;2022-11-23T05:50:32;7.50;99.90
39219;DHT22;24934;52.752;6.964;2022-11-23T05:52:58;7.50;99.90
39219;DHT22;24934;52.752;6.964;2022-11-23T05:55:25;7.50;99.90
39219;DHT22;24934;52.752;6.964;2022-11-23T05:57:51;7.40;99.90
39219;DHT22;24934;52.752;6.964;2022-11-23T06:00:18;7.40;99.90
39219;DHT22;24934;52.752;6.964;2022-11-23T06:02:46;7.40;99.90
39219;DHT22;24934;52.752;6.964;2022-11-23T06:05:12;7.30;99.90
39219;DHT22;24934;52.752;6.964;2022-11-23T06:07:37;7.20;99.90
39219;DHT22;24934;52.752;6.964;2022-11-23T06:10:05;7.10;99.90
39219;DHT22;24934;52.752;6.964;2022-11-23T06:12:34;7.00;99.90
39219;DHT22;24934;52.752;6.964;2022-11-23T06:14:59;6.90;99.90
39219;DHT22;24934;52.752;6.964;2022-11-23T06:17:25;6.90;99.90
39219;DHT22;24934;52.752;6.964;2022-11-23T06:19:50;6.80;99.90
39219;DHT22;24934;52.752;6.964;2022-11-23T06:22:16;6.70;99.90
39219;DHT22;24934;52.752;6.964;2022-11-23T06:24:42;6.70;99.90
39219;DHT22;24934;52.752;6.964;2022-11-23T06:27:10;6.60;99.90
39219;DHT22;24934;52.752;6.964;2022-11-23T06:29:36;6.50;99.90
39219;DHT22;24934;52.752;6.964;2022-11-23T06:32:04;6.50;99.90
39219;DHT22;24934;52.752;6.964;2022-11-23T06:34:30;6.40;99.90
39219;DHT22;24934;52.752;6.964;2022-11-23T06:36:55;6.50;99.90
39219;DHT22;24934;52.752;6.964;2022-11-23T06:39:21;6.40;99.90
39219;DHT22;24934;52.752;6.964;2022-11-23T06:41:47;6.50;99.90
39219;DHT22;24934;52.752;6.964;2022-11-23T06:44:12;6.50;99.90
39219;DHT22;24934;52.752;6.964;2022-11-23T06:46:38;6.50;99.90
39219;DHT22;24934;52.752;6.964;2022-11-23T06:49:03;6.50;99.90
39219;DHT22;24934;52.752;6.964;2022-11-23T06:51:32;6.60;99.90
39219;DHT22;24934;52.752;6.964;2022-11-23T06:53:57;6.50;99.90
39219;DHT22;24934;52.752;6.964;2022-11-23T06:56:23;6.50;99.90
39219;DHT22;24934;52.752;6.964;2022-11-23T06:58:52;6.50;99.90
39219;DHT22;24934;52.752;6.964;2022-11-23T07:01:17;6.50;99.90
39219;DHT22;24934;52.752;6.964;2022-11-23T07:03:43;6.50;99.90
39219;DHT22;24934;52.752;6.964;2022-11-23T07:06:09;6.50;99.90
39219;DHT22;24934;52.752;6.964;2022-11-23T07:08:38;6.50;99.90
39219;DHT22;24934;52.752;6.964;2022-11-23T07:11:09;6.50;99.90
39219;DHT22;24934;52.752;6.964;2022-11-23T07:13:38;6.40;99.90
39219;DHT22;24934;52.752;6.964;2022-11-23T07:16:04;6.50;99.90
39219;DHT22;24934;52.752;6.964;2022-11-23T07:18:30;6.50;99.90
39219;DHT22;24934;52.752;6.964;2022-11-23T07:20:58;6.60;99.90
39219;DHT22;24934;52.752;6.964;2022-11-23T07:23:24;6.60;99.90
39219;DHT22;24934;52.752;6.964;2022-11-23T07:25:50;6.70;99.90
39219;DHT22;24934;52.752;6.964;2022-11-23T07:28:20;6.70;99.90
39219;DHT22;24934;52.752;6.964;2022-11-23T07:30:48;6.80;99.90
39219;DHT22;24934;52.752;6.964;2022-11-23T07:33:13;6.90;99.90
39219;DHT22;24934;52.752;6.964;2022-11-23T07:35:40;6.90;99.90
39219;DHT22;24934;52.752;6.964;2022-11-23T07:38:06;7.00;99.90
39219;DHT22;24934;52.752;6.964;2022-11-23T07:40:35;7.00;99.90
39219;DHT22;24934;52.752;6.964;2022-11-23T07:43:02;7.10;99.90
39219;DHT22;24934;52.752;6.964;2022-11-23T07:45:29;7.10;99.90
39219;DHT22;24934;52.752;6.964;2022-11-23T07:48:03;7.10;99.90
39219;DHT22;24934;52.752;6.964;2022-11-23T07:50:29;7.20;99.90
39219;DHT22;24934;52.752;6.964;2022-11-23T07:52:55;7.20;99.90
39219;DHT22;24934;52.752;6.964;2022-11-23T07:55:21;7.30;99.90
39219;DHT22;24934;52.752;6.964;2022-11-23T07:57:51;7.30;99.90
39219;DHT22;24934;52.752;6.964;2022-11-23T08:00:21;7.30;99.90
39219;DHT22;24934;52.752;6.964;2022-11-23T08:02:47;7.40;99.90
39219;DHT22;24934;52.752;6.964;2022-11-23T08:05:14;7.40;99.90
39219;DHT22;24934;52.752;6.964;2022-11-23T08:07:43;7.40;99.90
39219;DHT22;24934;52.752;6.964;2022-11-23T08:10:10;7.50;99.90
39219;DHT22;24934;52.752;6.964;2022-11-23T08:12:37;7.50;99.90
39219;DHT22;24934;52.752;6.964;2022-11-23T08:15:03;7.50;99.90
39219;DHT22;24934;52.752;6.964;2022-11-23T08:17:32;7.60;99.90
39219;DHT22;24934;52.752;6.964;2022-11-23T08:19:58;7.60;99.90
39219;DHT22;24934;52.752;6.964;2022-11-23T08:22:24;7.60;99.90
39219;DHT22;24934;52.752;6.964;2022-11-23T08:24:52;7.70;99.90
39219;DHT22;24934;52.752;6.964;2022-11-23T08:27:18;7.70;99.90
39219;DHT22;24934;52.752;6.964;2022-11-23T08:29:43;7.80;99.90
39219;DHT22;24934;52.752;6.964;2022-11-23T08:32:12;7.80;99.90
39219;DHT22;24934;52.752;6.964;2022-11-23T08:34:41;7.80;99.90
39219;DHT22;24934;52.752;6.964;2022-11-23T08:37:08;7.90;99.90
39219;DHT22;24934;52.752;6.964;2022-11-23T08:39:34;7.90;99.90
39219;DHT22;24934;52.752;6.964;2022-11-23T08:41:59;8.00;99.90
39219;DHT22;24934;52.752;6.964;2022-11-23T08:44:25;8.00;99.90
39219;DHT22;24934;52.752;6.964;2022-11-23T08:46:53;8.00;99.90
39219;DHT22;24934;52.752;6.964;2022-11-23T08:49:19;8.00;99.90
39219;DHT22;24934;52.752;6.964;2022-11-23T08:51:45;8.00;99.90
39219;DHT22;24934;52.752;6.964;2022-11-23T08:54:10;8.10;99.90
39219;DHT22;24934;52.752;6.964;2022-11-23T08:56:39;8.10;99.90
39219;DHT22;24934;52.752;6.964;2022-11-23T08:59:05;8.10;99.90
39219;DHT22;24934;52.752;6.964;2022-11-23T09:01:33;8.20;99.90
39219;DHT22;24934;52.752;6.964;2022-11-23T09:03:58;8.20;99.90
39219;DHT22;24934;52.752;6.964;2022-11-23T09:06:24;8.20;99.90
39219;DHT22;24934;52.752;6.964;2022-11-23T09:08:54;8.10;99.90
39219;DHT22;24934;52.752;6.964;2022-11-23T09:11:19;8.10;99.90
39219;DHT22;24934;52.752;6.964;2022-11-23T09:13:45;8.10;99.90
39219;DHT22;24934;52.752;6.964;2022-11-23T09:16:11;8.10;99.90
39219;DHT22;24934;52.752;6.964;2022-11-23T09:18:36;8.10;99.90
39219;DHT22;24934;52.752;6.964;2022-11-23T09:21:03;8.20;99.90
39219;DHT22;24934;52.752;6.964;2022-11-23T09:23:29;8.20;99.90
39219;DHT22;24934;52.752;6.964;2022-11-23T09:25:59;8.20;99.90
39219;DHT22;24934;52.752;6.964;2022-11-23T09:28:28;8.20;99.90
39219;DHT22;24934;52.752;6.964;2022-11-23T09:30:55;8.20;99.90
39219;DHT22;24934;52.752;6.964;2022-11-23T09:33:22;8.20;99.90
39219;DHT22;24934;52.752;6.964;2022-11-23T09:35:58;8.20;99.90
39219;DHT22;24934;52.752;6.964;2022-11-23T09:38:24;8.30;99.90
39219;DHT22;24934;52.752;6.964;2022-11-23T09:41:41;8.30;99.90
39219;DHT22;24934;52.752;6.964;2022-11-23T09:44:02;8.30;99.90
39219;DHT22;24934;52.752;6.964;2022-11-23T09:46:36;8.40;99.90
39219;DHT22;24934;52.752;6.964;2022-11-23T09:49:19;8.40;99.90
39219;DHT22;24934;52.752;6.964;2022-11-23T09:51:46;8.30;99.90
39219;DHT22;24934;52.752;6.964;2022-11-23T09:54:31;8.30;99.90
39219;DHT22;24934;52.752;6.964;2022-11-23T09:56:58;8.30;99.90
39219;DHT22;24934;52.752;6.964;2022-11-23T10:01:59;8.40;99.90
39219;DHT22;24934;52.752;6.964;2022-11-23T10:04:26;8.40;99.90
39219;DHT22;24934;52.752;6.964;2022-11-23T10:06:56;8.40;99.90
39219;DHT22;24934;52.752;6.964;2022-11-23T10:22:05;8.60;99.90
39219;DHT22;24934;52.752;6.964;2022-11-23T10:24:45;8.80;99.90
39219;DHT22;24934;52.752;6.964;2022-11-23T10:27:20;8.90;99.90
39219;DHT22;24934;52.752;6.964;2022-11-23T10:29:47;9.10;99.90
39219;DHT22;24934;52.752;6.964;2022-11-23T10:37:28;9.40;99.90
39219;DHT22;24934;52.752;6.964;2022-11-23T10:39:53;9.40;99.90
39219;DHT22;24934;52.752;6.964;2022-11-23T10:42:48;9.50;99.90
39219;DHT22;24934;52.752;6.964;2022-11-23T10:45:21;9.50;99.90
39219;DHT22;24934;52.752;6.964;2022-11-23T10:47:53;9.40;99.90
39219;DHT22;24934;52.752;6.964;2022-11-23T10:50:36;9.40;99.90
39219;DHT22;24934;52.752;6.964;2022-11-23T10:58:34;9.40;99.90
39219;DHT22;24934;52.752;6.964;2022-11-23T11:01:18;9.50;99.90
39219;DHT22;24934;52.752;6.964;2022-11-23T11:03:44;9.60;99.90
39219;DHT22;24934;52.752;6.964;2022-11-23T11:06:10;9.80;99.90
39219;DHT22;24934;52.752;6.964;2022-11-23T11:08:52;9.90;99.90
39219;DHT22;24934;52.752;6.964;2022-11-23T11:11:36;10.00;99.90
39219;DHT22;24934;52.752;6.964;2022-11-23T11:14:17;10.10;99.90
39219;DHT22;24934;52.752;6.964;2022-11-23T11:16:54;10.10;99.90
39219;DHT22;24934;52.752;6.964;2022-11-23T11:21:53;10.20;99.90
39219;DHT22;24934;52.752;6.964;2022-11-23T11:24:43;10.20;99.90
39219;DHT22;24934;52.752;6.964;2022-11-23T11:27:17;10.20;99.90
39219;DHT22;24934;52.752;6.964;2022-11-23T11:35:08;10.20;99.90
39219;DHT22;24934;52.752;6.964;2022-11-23T11:37:45;10.30;99.90
39219;DHT22;24934;52.752;6.964;2022-11-23T11:40:31;10.40;99.90
39219;DHT22;24934;52.752;6.964;2022-11-23T11:45:49;10.50;99.90
39219;DHT22;24934;52.752;6.964;2022-11-23T11:48:29;10.50;99.90
39219;DHT22;24934;52.752;6.964;2022-11-23T11:51:06;10.60;99.90
39219;DHT22;24934;52.752;6.964;2022-11-23T11:53:56;10.60;99.90
39219;DHT22;24934;52.752;6.964;2022-11-23T11:56:36;10.70;99.90
39219;DHT22;24934;52.752;6.964;2022-11-23T11:59:16;10.70;99.90
39219;DHT22;24934;52.752;6.964;2022-11-23T12:06:55;11.10;99.90
39219;DHT22;24934;52.752;6.964;2022-11-23T12:09:29;11.20;99.90
39219;DHT22;24934;52.752;6.964;2022-11-23T12:11:57;11.40;99.90
39219;DHT22;24934;52.752;6.964;2022-11-23T12:14:25;11.50;99.90
39219;DHT22;24934;52.752;6.964;2022-11-23T12:17:08;11.50;99.90
39219;DHT22;24934;52.752;6.964;2022-11-23T12:19:50;11.40;99.90
39219;DHT22;24934;52.752;6.964;2022-11-23T12:25:33;11.60;99.90
39219;DHT22;24934;52.752;6.964;2022-11-23T12:31:08;11.70;99.90
39219;DHT22;24934;52.752;6.964;2022-11-23T12:34:01;11.70;99.90
39219;DHT22;24934;52.752;6.964;2022-11-23T12:39:46;11.90;99.90
39219;DHT22;24934;52.752;6.964;2022-11-23T12:42:17;11.70;99.90
39219;DHT22;24934;52.752;6.964;2022-11-23T12:50:20;11.80;99.90
39219;DHT22;24934;52.752;6.964;2022-11-23T12:53:12;11.50;99.90
39219;DHT22;24934;52.752;6.964;2022-11-23T12:58:31;11.20;99.90
39219;DHT22;24934;52.752;6.964;2022-11-23T13:00:58;11.10;99.90
39219;DHT22;24934;52.752;6.964;2022-11-23T13:04:05;11.00;99.90
39219;DHT22;24934;52.752;6.964;2022-11-23T13:06:46;10.90;99.90
39219;DHT22;24934;52.752;6.964;2022-11-23T13:17:53;10.70;99.90
39219;DHT22;24934;52.752;6.964;2022-11-23T13:23:11;10.50;99.90
39219;DHT22;24934;52.752;6.964;2022-11-23T13:25:37;10.60;99.90
39219;DHT22;24934;52.752;6.964;2022-11-23T13:28:46;10.50;99.90
39219;DHT22;24934;52.752;6.964;2022-11-23T13:33:43;10.50;99.90
39219;DHT22;24934;52.752;6.964;2022-11-23T13:36:32;10.50;99.90
39219;DHT22;24934;52.752;6.964;2022-11-23T13:38:59;10.40;99.90
39219;DHT22;24934;52.752;6.964;2022-11-23T13:44:26;10.30;99.90
39219;DHT22;24934;52.752;6.964;2022-11-23T13:46:56;10.30;99.90
39219;DHT22;24934;52.752;6.964;2022-11-23T13:49:40;10.20;99.90
39219;DHT22;24934;52.752;6.964;2022-11-23T13:55:08;10.20;99.90
39219;DHT22;24934;52.752;6.964;2022-11-23T13:58:35;10.10;99.90
39219;DHT22;24934;52.752;6.964;2022-11-23T14:00:48;10.10;99.90
39219;DHT22;24934;52.752;6.964;2022-11-23T14:12:13;9.80;99.90
39219;DHT22;24934;52.752;6.964;2022-11-23T14:17:32;9.80;99.90
39219;DHT22;24934;52.752;6.964;2022-11-23T14:42:41;9.10;99.90
39219;DHT22;24934;52.752;6.964;2022-11-23T14:45:13;9.00;99.90
39219;DHT22;24934;52.752;6.964;2022-11-23T14:47:39;8.90;99.90
39219;DHT22;24934;52.752;6.964;2022-11-23T14:50:25;8.80;99.90
39219;DHT22;24934;52.752;6.964;2022-11-23T14:52:52;8.70;99.90
39219;DHT22;24934;52.752;6.964;2022-11-23T14:55:21;8.70;99.90
39219;DHT22;24934;52.752;6.964;2022-11-23T14:57:49;8.60;99.90
39219;DHT22;24934;52.752;6.964;2022-11-23T15:00:43;8.50;99.90
39219;DHT22;24934;52.752;6.964;2022-11-23T15:03:12;8.40;99.90
39219;DHT22;24934;52.752;6.964;2022-11-23T15:05:47;8.40;99.90
39219;DHT22;24934;52.752;6.964;2022-11-23T15:08:39;8.30;99.90
39219;DHT22;24934;52.752;6.964;2022-11-23T15:11:10;8.30;99.90
39219;DHT22;24934;52.752;6.964;2022-11-23T15:13:50;8.20;99.90
39219;DHT22;24934;52.752;6.964;2022-11-23T15:16:17;8.20;99.90
39219;DHT22;24934;52.752;6.964;2022-11-23T15:18:44;8.20;99.90
39219;DHT22;24934;52.752;6.964;2022-11-23T15:23:46;8.10;99.90
39219;DHT22;24934;52.752;6.964;2022-11-23T15:26:15;8.10;99.90
39219;DHT22;24934;52.752;6.964;2022-11-23T15:28:41;8.10;99.90
39219;DHT22;24934;52.752;6.964;2022-11-23T15:31:25;8.00;99.90
39219;DHT22;24934;52.752;6.964;2022-11-23T15:33:56;7.90;99.90
39219;DHT22;24934;52.752;6.964;2022-11-23T15:36:29;7.90;99.90
39219;DHT22;24934;52.752;6.964;2022-11-23T15:38:56;7.90;99.90
39219;DHT22;24934;52.752;6.964;2022-11-23T15:41:26;7.90;99.90
39219;DHT22;24934;52.752;6.964;2022-11-23T15:43:59;8.00;99.90
39219;DHT22;24934;52.752;6.964;2022-11-23T15:46:36;8.00;99.90
39219;DHT22;24934;52.752;6.964;2022-11-23T15:49:03;8.00;99.90
39219;DHT22;24934;52.752;6.964;2022-11-23T15:51:38;8.10;99.90
39219;DHT22;24934;52.752;6.964;2022-11-23T15:54:05;8.10;99.90
39219;DHT22;24934;52.752;6.964;2022-11-23T15:56:37;8.10;99.90
39219;DHT22;24934;52.752;6.964;2022-11-23T15:59:43;8.10;99.90
39219;DHT22;24934;52.752;6.964;2022-11-23T16:02:20;8.10;99.90
39219;DHT22;24934;52.752;6.964;2022-11-23T16:04:46;8.10;99.90
39219;DHT22;24934;52.752;6.964;2022-11-23T16:09:42;8.20;99.90
39219;DHT22;24934;52.752;6.964;2022-11-23T16:12:28;8.20;99.90
39219;DHT22;24934;52.752;6.964;2022-11-23T16:14:56;8.20;99.90
39219;DHT22;24934;52.752;6.964;2022-11-23T16:17:26;8.10;99.90
39219;DHT22;24934;52.752;6.964;2022-11-23T16:19:58;8.00;99.90
39219;DHT22;24934;52.752;6.964;2022-11-23T16:22:33;7.90;99.90
39219;DHT22;24934;52.752;6.964;2022-11-23T16:28:00;7.60;99.90
39219;DHT22;24934;52.752;6.964;2022-11-23T16:30:43;7.50;99.90
39219;DHT22;24934;52.752;6.964;2022-11-23T16:33:19;7.40;99.90
39219;DHT22;24934;52.752;6.964;2022-11-23T16:35:46;7.40;99.90
39219;DHT22;24934;52.752;6.964;2022-11-23T16:38:12;7.40;99.90
39219;DHT22;24934;52.752;6.964;2022-11-23T16:40:38;7.50;99.90
39219;DHT22;24934;52.752;6.964;2022-11-23T16:43:04;7.40;99.90
39219;DHT22;24934;52.752;6.964;2022-11-23T16:45:31;7.40;99.90
39219;DHT22;24934;52.752;6.964;2022-11-23T16:48:01;7.50;99.90
39219;DHT22;24934;52.752;6.964;2022-11-23T16:50:29;7.50;99.90
39219;DHT22;24934;52.752;6.964;2022-11-23T16:52:54;7.40;99.90
39219;DHT22;24934;52.752;6.964;2022-11-23T16:55:20;7.50;99.90
39219;DHT22;24934;52.752;6.964;2022-11-23T16:57:47;7.50;99.90
39219;DHT22;24934;52.752;6.964;2022-11-23T17:00:15;7.50;99.90
39219;DHT22;24934;52.752;6.964;2022-11-23T17:02:41;7.50;99.90
39219;DHT22;24934;52.752;6.964;2022-11-23T17:05:15;7.60;99.90
39219;DHT22;24934;52.752;6.964;2022-11-23T17:07:41;7.60;99.90
39219;DHT22;24934;52.752;6.964;2022-11-23T17:10:07;7.60;99.90
39219;DHT22;24934;52.752;6.964;2022-11-23T17:12:34;7.50;99.90
39219;DHT22;24934;52.752;6.964;2022-11-23T17:15:00;7.60;99.90
39219;DHT22;24934;52.752;6.964;2022-11-23T17:17:28;7.60;99.90
39219;DHT22;24934;52.752;6.964;2022-11-23T17:19:54;7.60;99.90
39219;DHT22;24934;52.752;6.964;2022-11-23T17:22:20;7.60;99.90
39219;DHT22;24934;52.752;6.964;2022-11-23T17:24:47;7.50;99.90
39219;DHT22;24934;52.752;6.964;2022-11-23T17:27:23;7.50;99.90
39219;DHT22;24934;52.752;6.964;2022-11-23T17:29:55;7.40;99.90
39219;DHT22;24934;52.752;6.964;2022-11-23T17:32:21;7.40;99.90
39219;DHT22;24934;52.752;6.964;2022-11-23T17:34:47;7.30;99.90
39219;DHT22;24934;52.752;6.964;2022-11-23T17:37:20;7.20;99.90
39219;DHT22;24934;52.752;6.964;2022-11-23T17:39:48;7.20;99.90
39219;DHT22;24934;52.752;6.964;2022-11-23T17:42:20;7.10;99.90
39219;DHT22;24934;52.752;6.964;2022-11-23T17:44:46;7.10;99.90
39219;DHT22;24934;52.752;6.964;2022-11-23T17:47:27;7.00;99.90
39219;DHT22;24934;52.752;6.964;2022-11-23T17:49:54;7.00;99.90
39219;DHT22;24934;52.752;6.964;2022-11-23T17:52:22;7.00;99.90
39219;DHT22;24934;52.752;6.964;2022-11-23T17:54:48;7.00;99.90
39219;DHT22;24934;52.752;6.964;2022-11-23T17:57:16;7.00;99.90
39219;DHT22;24934;52.752;6.964;2022-11-23T17:59:41;6.90;99.90
39219;DHT22;24934;52.752;6.964;2022-11-23T18:02:08;6.90;99.90
39219;DHT22;24934;52.752;6.964;2022-11-23T18:04:34;6.90;99.90
39219;DHT22;24934;52.752;6.964;2022-11-23T18:07:12;6.90;99.90
39219;DHT22;24934;52.752;6.964;2022-11-23T18:09:41;6.90;99.90
39219;DHT22;24934;52.752;6.964;2022-11-23T18:12:10;6.90;99.90